createdAt,value
2023-04-10T05:46:46.598Z,14.7
2023-04-10T05:52:36.660Z,13.6
2023-04-10T05:58:27.214Z,13.5
2023-04-10T06:04:18.922Z,13.9
2023-04-10T06:10:09.552Z,14
2023-04-10T06:16:01.676Z,13.5
2023-04-10T06:22:02.153Z,12.9
2023-04-10T06:27:53.012Z,13.4
2023-04-10T06:33:43.471Z,13.4
2023-04-10T06:39:35.683Z,13.6
2023-04-10T06:45:28.930Z,13.2
2023-04-10T06:51:19.923Z,13.5
2023-04-10T06:57:10.660Z,12.9
2023-04-10T07:03:03.432Z,12.8
2023-04-10T07:08:55.946Z,13
2023-04-10T07:14:47.254Z,12
2023-04-10T07:20:39.017Z,11.7
2023-04-10T07:26:44.030Z,12.1
2023-04-10T07:32:35.352Z,11.5
2023-04-10T07:38:29.933Z,11.6
2023-04-10T07:44:21.153Z,10.7
2023-04-10T07:50:13.746Z,10.9
2023-04-10T07:56:04.835Z,10.5
2023-04-10T08:01:56.442Z,10.4
2023-04-10T08:07:48.702Z,11
2023-04-10T08:13:40.365Z,11
2023-04-10T08:19:33.198Z,10.6
2023-04-10T08:25:26.231Z,10.3
2023-04-10T08:31:17.577Z,10.8
2023-04-10T08:37:13.783Z,9.7
2023-04-10T08:43:05.951Z,10.2
2023-04-10T08:48:56.951Z,9.5
2023-04-10T08:54:49.290Z,9.3
2023-04-10T09:00:40.842Z,9.7
2023-04-10T09:06:33.615Z,9.5
2023-04-10T09:12:23.836Z,9.3
2023-04-10T09:18:16.478Z,8.9
2023-04-10T09:24:07.713Z,8.8
2023-04-10T09:29:58.913Z,8.5
2023-04-10T09:35:49.714Z,8.1
2023-04-10T09:41:40.925Z,7.9
2023-04-10T09:47:33.073Z,7.6
2023-04-10T09:53:25.315Z,7.5
2023-04-10T09:59:18.289Z,7
2023-04-10T10:05:09.679Z,7
2023-04-10T10:11:01.865Z,6.4
2023-04-10T10:16:53.163Z,7
2023-04-10T10:22:45.486Z,7.9
2023-04-10T10:28:38.973Z,6.1
2023-04-10T10:34:34.221Z,6
2023-04-10T10:40:26.974Z,5.6
2023-04-10T10:46:19.398Z,5.7
2023-04-10T10:52:13.475Z,5.7
2023-04-10T10:58:05.686Z,5
2023-04-10T11:03:58.306Z,4.5
2023-04-10T11:09:50.776Z,4.5
2023-04-10T11:15:43.284Z,4.3
2023-04-10T11:21:38.070Z,3.4
2023-04-10T11:27:32.371Z,3.1
2023-04-10T11:33:24.174Z,3.2
2023-04-10T11:39:17.416Z,2.9
2023-04-10T11:45:09.481Z,3.2
2023-04-10T11:51:01.796Z,3.8
2023-04-10T11:56:56.682Z,3.4
2023-04-10T12:02:48.640Z,3.2
2023-04-10T12:08:39.207Z,3.5
2023-04-10T12:14:30.983Z,3
2023-04-10T12:20:22.851Z,3
2023-04-10T12:26:13.762Z,2.9
2023-04-10T12:32:04.657Z,3
2023-04-10T12:37:57.774Z,3
2023-04-10T12:43:51.303Z,3.5
2023-04-10T12:49:44.559Z,3.3
2023-04-10T12:55:40.305Z,3.1
2023-04-10T13:01:35.474Z,3.1
2023-04-10T13:07:36.678Z,3.3
2023-04-10T13:13:40.132Z,3.2
2023-04-10T13:19:31.033Z,3.3
2023-04-10T13:25:22.897Z,3.1
2023-04-10T13:31:15.570Z,3.2
2023-04-10T13:37:07.553Z,3.4
2023-04-10T13:43:04.448Z,3.6
2023-04-10T13:49:03.227Z,3
2023-04-10T13:54:55.207Z,3.2
2023-04-10T14:00:47.220Z,2.7
2023-04-10T14:06:41.259Z,3
2023-04-10T14:12:32.165Z,2.8
2023-04-10T14:18:26.572Z,2.8
2023-04-10T14:24:19.701Z,2.6
2023-04-10T14:30:12.783Z,2.4
2023-04-10T14:36:06.949Z,2.3
2023-04-10T14:42:01.333Z,2.5
2023-04-10T14:47:53.127Z,2.3
2023-04-10T14:53:45.977Z,2.6
2023-04-10T14:59:36.093Z,2.3
2023-04-10T15:05:27.419Z,2.4
2023-04-10T15:11:17.794Z,2.7
2023-04-10T15:17:15.696Z,2.6
2023-04-10T15:23:11.754Z,2.5
2023-04-10T15:29:05.057Z,3.6
2023-04-10T18:27:04.375Z,2.8
2023-04-10T20:08:36.985Z,2.5
2023-04-10T20:14:44.070Z,2.7
2023-04-10T21:32:53.109Z,1.6
2023-04-10T21:39:09.326Z,1.3
2023-04-10T21:45:30.771Z,3.1
2023-04-10T21:51:36.233Z,2.7
2023-04-10T22:03:49.470Z,1.8
2023-04-10T22:28:24.814Z,1.3
2023-04-10T22:34:17.160Z,1.4
2023-04-10T22:40:10.428Z,1.2
2023-04-10T22:46:02.583Z,1.2
2023-04-10T22:51:54.692Z,1.1
2023-04-10T22:57:46.558Z,1
2023-04-10T23:03:39.240Z,0.8
2023-04-10T23:09:29.870Z,0.9
2023-04-10T23:15:21.214Z,0.8
2023-04-10T23:21:12.644Z,1
2023-04-10T23:27:05.348Z,1.1
2023-04-10T23:32:59.544Z,1
2023-04-10T23:38:52.317Z,1
2023-04-10T23:44:44.467Z,1.3
2023-04-10T23:50:35.650Z,1
2023-04-10T23:56:27.671Z,1.3
